Edzo, Canada
Current Conditions -  °F | °C
As of 2:00 AM on Saturday 20 Dec 2014 (Local Time) from CYZF Reporting Station
Broken Clouds Broken Clouds  
Wind Chill:   Ceiling: 6000
Heat Index: 12°   Visibility: 15mi
Dew Point: 10°   Wind: 9mph
Humidity: 92%   Direction: 90°E
Pressure: 29.56"   Gusts: NA
Location:  62.78°N, 116.03°W
Report Text: CYZF 200900Z 09008KT 15SM BKN060 M11/M12 A2956 RMK SC7 SLP031
Loading
Personal Weather Stations






























Interactive Weather Map New forecast layout! Learn more

10-Day Weather Forecast

Advertisements
Track Severe Weather on mobile